createdAt,value
2023-02-09T00:00:03.448Z,1008.98
2023-02-09T00:05:03.077Z,1009.17
2023-02-09T00:10:03.338Z,1009.3
2023-02-09T00:15:03.029Z,1009.41
2023-02-09T00:20:03.381Z,1009.53
2023-02-09T00:25:03.021Z,1009.71
2023-02-09T00:30:03.278Z,1009.83
2023-02-09T00:35:03.068Z,1009.85
2023-02-09T00:40:04.474Z,1009.9
2023-02-09T00:45:03.070Z,1010.0
2023-02-09T00:50:03.432Z,1010.11
2023-02-09T00:55:03.325Z,1010.22
2023-02-09T01:00:03.385Z,1010.24
2023-02-09T01:05:03.303Z,1010.29
2023-02-09T01:10:03.201Z,1010.44
2023-02-09T01:15:03.228Z,1010.72
2023-02-09T01:20:03.327Z,1010.78
2023-02-09T01:25:03.106Z,1010.83
2023-02-09T01:30:03.284Z,1010.82
2023-02-09T01:35:03.073Z,1010.94
2023-02-09T01:40:03.368Z,1011.03
2023-02-09T01:45:03.086Z,1011.06
2023-02-09T01:50:03.207Z,1011.05
2023-02-09T01:55:04.116Z,1011.06
2023-02-09T02:00:03.270Z,1011.08
2023-02-09T02:05:03.036Z,1011.06
2023-02-09T02:10:03.194Z,1011.11
2023-02-09T02:15:03.169Z,1011.14
2023-02-09T02:20:04.213Z,1011.1
2023-02-09T02:25:04.086Z,1011.12
2023-02-09T02:30:03.291Z,1011.08
2023-02-09T02:35:02.950Z,1011.05
2023-02-09T02:40:03.225Z,1011.04
2023-02-09T02:45:03.019Z,1010.97
2023-02-09T02:50:03.257Z,1010.92
2023-02-09T02:55:02.990Z,1010.92
2023-02-09T03:00:03.368Z,1010.9
2023-02-09T03:05:03.082Z,1010.72
2023-02-09T03:10:03.597Z,1010.65
2023-02-09T03:15:03.063Z,1010.58
2023-02-09T03:20:03.192Z,1010.6
2023-02-09T03:25:03.150Z,1010.53
2023-02-09T03:30:03.261Z,1010.54
2023-02-09T03:35:08.038Z,1010.6
2023-02-09T03:40:03.197Z,1010.59
2023-02-09T03:45:03.006Z,1010.58
2023-02-09T03:50:03.201Z,1010.54
2023-02-09T03:55:08.066Z,1010.57
2023-02-09T04:00:03.236Z,1010.6
2023-02-09T04:05:05.447Z,1010.59
2023-02-09T04:10:03.698Z,1010.53
2023-02-09T04:15:03.231Z,1010.6
2023-02-09T04:20:03.169Z,1010.63
2023-02-09T04:25:03.032Z,1010.58
2023-02-09T04:30:03.227Z,1010.59
2023-02-09T04:35:03.049Z,1010.6
2023-02-09T04:40:03.150Z,1010.6
2023-02-09T04:45:03.093Z,1010.59
2023-02-09T04:50:03.137Z,1010.57
2023-02-09T04:55:03.086Z,1010.57
2023-02-09T05:00:03.169Z,1010.55
2023-02-09T05:05:03.078Z,1010.55
2023-02-09T05:10:03.150Z,1010.58
2023-02-09T05:15:03.005Z,1010.59
2023-02-09T05:20:03.330Z,1010.55
2023-02-09T05:25:03.080Z,1010.56
2023-02-09T05:30:03.366Z,1010.59
2023-02-09T05:35:03.022Z,1010.62
2023-02-09T05:40:03.235Z,1010.6
2023-02-09T05:45:03.022Z,1010.56
2023-02-09T05:50:03.219Z,1010.53
2023-02-09T05:55:03.072Z,1010.52
2023-02-09T06:00:03.164Z,1010.52
2023-02-09T06:05:02.942Z,1010.61
2023-02-09T06:10:03.134Z,1010.62
2023-02-09T06:15:03.214Z,1010.66
2023-02-09T06:20:03.228Z,1010.71
2023-02-09T06:25:03.066Z,1010.73
2023-02-09T06:30:03.212Z,1010.79
2023-02-09T06:35:03.014Z,1010.73
2023-02-09T06:40:04.283Z,1010.74
2023-02-09T06:45:03.012Z,1010.64
2023-02-09T06:50:03.175Z,1010.65
2023-02-09T06:55:02.981Z,1010.57
2023-02-09T07:00:03.275Z,1010.51
2023-02-09T07:05:03.036Z,1010.5
2023-02-09T07:10:03.154Z,1010.46
2023-02-09T07:15:02.989Z,1010.41
2023-02-09T07:20:08.179Z,1010.35
2023-02-09T07:25:03.109Z,1010.37
2023-02-09T07:30:03.374Z,1010.46
2023-02-09T07:35:02.986Z,1010.5
2023-02-09T07:40:03.148Z,1010.45
2023-02-09T07:45:02.961Z,1010.44
2023-02-09T07:50:03.113Z,1010.47
2023-02-09T07:55:03.170Z,1010.57
2023-02-09T08:00:03.190Z,1010.54
2023-02-09T08:05:03.013Z,1010.55
2023-02-09T08:10:03.233Z,1010.58
2023-02-09T08:15:03.021Z,1010.56
2023-02-09T08:20:03.142Z,1010.55
2023-02-09T08:25:03.014Z,1010.64
2023-02-09T08:30:03.275Z,1010.7
2023-02-09T08:35:03.048Z,1010.72
2023-02-09T08:40:03.362Z,1010.7
2023-02-09T08:45:03.156Z,1010.69
2023-02-09T08:50:03.276Z,1010.81
2023-02-09T08:55:02.997Z,1010.84
2023-02-09T09:00:03.407Z,1010.91
2023-02-09T09:05:03.034Z,1010.87
2023-02-09T09:10:03.224Z,1010.97
2023-02-09T09:15:02.989Z,1011.1
2023-02-09T09:20:03.179Z,1011.16
2023-02-09T09:25:03.101Z,1011.41
2023-02-09T09:30:03.204Z,1011.56
2023-02-09T09:35:04.069Z,1011.57
2023-02-09T09:40:03.187Z,1011.53
2023-02-09T09:45:03.018Z,1011.56
2023-02-09T09:50:03.205Z,1011.6
2023-02-09T09:55:02.999Z,1011.65
2023-02-09T10:00:03.176Z,1011.71
2023-02-09T10:05:03.100Z,1011.78
2023-02-09T10:10:03.210Z,1011.87
2023-02-09T10:15:03.018Z,1011.82
2023-02-09T10:20:03.171Z,1011.95
2023-02-09T10:25:08.059Z,1012.08
2023-02-09T10:30:03.220Z,1012.1
2023-02-09T10:35:03.108Z,1012.28
2023-02-09T10:40:03.069Z,1012.37
2023-02-09T10:45:02.972Z,1012.42
2023-02-09T10:50:03.187Z,1012.41
2023-02-09T10:55:03.052Z,1012.54
2023-02-09T11:00:03.172Z,1012.53
2023-02-09T11:05:02.971Z,1012.5
2023-02-09T11:10:03.149Z,1012.45
2023-02-09T11:15:02.970Z,1012.43
2023-02-09T11:20:03.141Z,1012.51
2023-02-09T11:25:03.037Z,1012.58
2023-02-09T11:30:03.207Z,1012.59
2023-02-09T11:35:03.024Z,1012.59
2023-02-09T11:40:03.177Z,1012.6
2023-02-09T11:45:03.009Z,1012.47
2023-02-09T11:50:03.223Z,1012.55
2023-02-09T11:55:03.686Z,1012.64
2023-02-09T12:00:03.305Z,1012.59
2023-02-09T12:05:02.982Z,1012.61
2023-02-09T12:10:03.244Z,1012.71
2023-02-09T12:15:03.119Z,1012.66
2023-02-09T12:20:03.157Z,1012.86
2023-02-09T12:25:03.013Z,1012.87
2023-02-09T12:30:03.231Z,1012.88
2023-02-09T12:35:02.942Z,1012.82
2023-02-09T12:40:03.268Z,1012.82
2023-02-09T12:45:02.907Z,1012.84
2023-02-09T12:50:03.156Z,1012.79
2023-02-09T12:55:03.023Z,1012.82
2023-02-09T13:00:03.325Z,1012.71
2023-02-09T13:05:03.041Z,1012.71
2023-02-09T13:10:03.283Z,1012.63
2023-02-09T13:15:03.000Z,1012.64
2023-02-09T13:20:03.235Z,1012.69
2023-02-09T13:25:03.093Z,1012.74
2023-02-09T13:30:03.166Z,1012.77
2023-02-09T13:35:02.981Z,1012.76
2023-02-09T13:40:03.253Z,1012.6
2023-02-09T13:45:03.037Z,1012.6
2023-02-09T13:50:03.181Z,1012.61
2023-02-09T13:55:03.061Z,1012.58
2023-02-09T14:00:03.241Z,1012.5
2023-02-09T14:05:02.950Z,1012.52
2023-02-09T14:10:03.247Z,1012.52
2023-02-09T14:15:03.015Z,1012.46
2023-02-09T14:20:04.267Z,1012.48
2023-02-09T14:25:03.014Z,1012.57
2023-02-09T14:30:03.212Z,1012.56
2023-02-09T14:35:02.937Z,1012.46
2023-02-09T14:40:03.226Z,1012.42
2023-02-09T14:45:02.998Z,1012.4
2023-02-09T14:50:03.458Z,1012.39
2023-02-09T14:55:03.017Z,1012.32
2023-02-09T15:00:03.251Z,1012.28
2023-02-09T15:05:02.987Z,1012.27
2023-02-09T15:10:03.306Z,1012.22
2023-02-09T15:15:03.021Z,1012.2
2023-02-09T15:20:03.260Z,1012.14
2023-02-09T15:25:03.064Z,1012.14
2023-02-09T15:30:04.870Z,1012.0
2023-02-09T15:35:03.137Z,1012.0
2023-02-09T15:40:03.245Z,1011.98
2023-02-09T15:45:03.067Z,1011.96
2023-02-09T15:50:03.207Z,1011.91
2023-02-09T15:55:02.986Z,1011.9
2023-02-09T16:00:03.294Z,1011.82
2023-02-09T16:05:03.032Z,1011.73
2023-02-09T16:10:03.209Z,1011.65
2023-02-09T16:15:03.152Z,1011.52
2023-02-09T16:20:03.132Z,1011.51
2023-02-09T16:25:03.102Z,1011.48
2023-02-09T16:30:03.193Z,1011.32
2023-02-09T16:35:14.800Z,1011.21
2023-02-09T16:40:03.141Z,1011.08
2023-02-09T16:45:02.988Z,1010.96
2023-02-09T16:50:03.284Z,1010.8
2023-02-09T16:55:03.096Z,1010.74
2023-02-09T17:00:03.201Z,1010.58
2023-02-09T17:05:02.998Z,1010.57
2023-02-09T17:10:03.222Z,1010.43
2023-02-09T17:15:03.070Z,1010.38
2023-02-09T17:20:03.187Z,1010.29
2023-02-09T17:25:03.226Z,1010.24
2023-02-09T17:30:03.216Z,1010.17
2023-02-09T17:35:02.975Z,1010.04
2023-02-09T17:40:03.240Z,1009.89
2023-02-09T17:45:03.021Z,1009.8
2023-02-09T17:50:03.173Z,1009.72
2023-02-09T17:55:07.991Z,1009.66
2023-02-09T18:00:03.301Z,1009.55
2023-02-09T18:05:03.006Z,1009.38
2023-02-09T18:10:03.270Z,1009.2
2023-02-09T18:15:02.977Z,1009.09
2023-02-09T18:20:03.127Z,1008.95
2023-02-09T18:25:03.012Z,1008.82
2023-02-09T18:30:03.201Z,1008.61
2023-02-09T18:35:02.985Z,1008.46
2023-02-09T18:40:03.348Z,1008.26
2023-02-09T18:45:03.026Z,1008.2
2023-02-09T18:50:03.272Z,1008.13
2023-02-09T18:55:03.010Z,1008.12
2023-02-09T19:00:03.132Z,1007.99
2023-02-09T19:05:02.930Z,1007.83
2023-02-09T19:10:03.450Z,1007.71
2023-02-09T19:15:03.018Z,1007.62
2023-02-09T19:20:03.204Z,1007.45
2023-02-09T19:25:03.086Z,1007.26
2023-02-09T19:30:03.203Z,1007.25
2023-02-09T19:35:03.041Z,1007.23
2023-02-09T19:40:03.208Z,1007.14
2023-02-09T19:45:02.977Z,1007.12
2023-02-09T19:50:03.167Z,1007.09
2023-02-09T19:55:03.020Z,1006.97
2023-02-09T20:00:05.708Z,1006.93
2023-02-09T20:05:02.975Z,1006.92
2023-02-09T20:10:03.251Z,1006.86
2023-02-09T20:15:02.947Z,1006.78
2023-02-09T20:20:03.119Z,1006.7
2023-02-09T20:25:03.030Z,1006.77
2023-02-09T20:30:03.201Z,1006.84
2023-02-09T20:35:02.976Z,1006.97
2023-02-09T20:40:03.358Z,1007.16
2023-02-09T20:45:03.061Z,1007.16
2023-02-09T20:50:03.075Z,1007.17
2023-02-09T20:55:03.141Z,1007.12
2023-02-09T21:00:03.198Z,1007.08
2023-02-09T21:05:02.973Z,1007.13
2023-02-09T21:10:03.324Z,1007.16
2023-02-09T21:15:02.953Z,1007.15
2023-02-09T21:20:03.127Z,1007.16
2023-02-09T21:25:03.030Z,1007.07
2023-02-09T21:30:03.377Z,1007.07
2023-02-09T21:35:02.982Z,1007.06
2023-02-09T21:40:03.200Z,1007.1
2023-02-09T21:45:03.019Z,1007.13
2023-02-09T21:50:03.072Z,1007.25
2023-02-09T21:55:03.169Z,1007.36
2023-02-09T22:00:03.169Z,1007.6
2023-02-09T22:05:02.967Z,1007.79
2023-02-09T22:10:03.206Z,1008.05
2023-02-09T22:15:03.116Z,1008.17
2023-02-09T22:20:03.134Z,1008.26
2023-02-09T22:25:03.087Z,1008.11
2023-02-09T22:30:03.191Z,1008.17
2023-02-09T22:35:03.062Z,1008.27
2023-02-09T22:40:03.275Z,1008.44
2023-02-09T22:45:03.030Z,1008.56
2023-02-09T22:50:03.220Z,1008.72
2023-02-09T22:55:03.010Z,1008.87
2023-02-09T23:00:03.231Z,1008.94
2023-02-09T23:05:03.067Z,1009.09
2023-02-09T23:10:03.221Z,1009.12
2023-02-09T23:15:03.017Z,1009.2
2023-02-09T23:20:03.381Z,1009.32
2023-02-09T23:25:03.030Z,1009.44
2023-02-09T23:30:03.415Z,1009.49
2023-02-09T23:35:03.024Z,1009.63
2023-02-09T23:40:03.220Z,1009.65
2023-02-09T23:45:03.257Z,1009.71
2023-02-09T23:50:03.277Z,1009.79
2023-02-09T23:55:03.064Z,1009.89
